createdAt,value
2022-11-19T00:00:28.063Z,98447.63
2022-11-19T00:01:30.307Z,98444.38
2022-11-19T00:02:32.546Z,98442.56
2022-11-19T00:03:36.526Z,98447.22
2022-11-19T00:04:38.687Z,98440.94
2022-11-19T00:05:45.667Z,98442.22
2022-11-19T00:06:47.826Z,98446.38
2022-11-19T00:07:49.987Z,98443.41
2022-11-19T00:08:52.934Z,98449.63
2022-11-19T00:09:55.233Z,98447.50
2022-11-19T00:11:09.685Z,98461.34
2022-11-19T00:12:30.681Z,98454.91
2022-11-19T00:13:33.209Z,98452.69
2022-11-19T00:14:35.451Z,98459.22
2022-11-19T00:15:37.752Z,98455.22
2022-11-19T00:16:40.380Z,98463.31
2022-11-19T00:17:42.587Z,98459.94
2022-11-19T00:18:44.772Z,98466.59
2022-11-19T00:19:46.978Z,98468.81
2022-11-19T00:20:50.847Z,98462.66
2022-11-19T00:21:53.038Z,98464.44
2022-11-19T00:22:57.081Z,98463.25
2022-11-19T00:23:59.529Z,98468.34
2022-11-19T00:25:01.726Z,98471.44
2022-11-19T00:26:09.301Z,98466.00
2022-11-19T00:27:11.519Z,98464.13
2022-11-19T00:28:13.709Z,98459.50
2022-11-19T00:29:18.190Z,98471.06
2022-11-19T00:30:46.274Z,98463.19
2022-11-19T00:31:43.149Z,98481.63
2022-11-19T00:32:48.424Z,98464.44
2022-11-19T00:33:50.983Z,98470.59
2022-11-19T00:34:53.334Z,98466.03
2022-11-19T00:35:56.895Z,98467.97
2022-11-19T00:36:59.063Z,98461.88
2022-11-19T00:38:01.288Z,98465.50
2022-11-19T00:39:06.256Z,98464.91
2022-11-19T00:40:11.737Z,98453.41
2022-11-19T00:41:13.951Z,98464.44
2022-11-19T00:42:16.098Z,98470.22
2022-11-19T00:43:37.430Z,98460.63
2022-11-19T00:44:39.685Z,98460.28
2022-11-19T00:45:44.348Z,98459.22
2022-11-19T00:46:46.658Z,98460.97
2022-11-19T00:47:48.819Z,98459.94
2022-11-19T00:48:52.890Z,98461.50
2022-11-19T00:49:55.091Z,98457.66
2022-11-19T00:50:57.392Z,98465.56
2022-11-19T00:51:59.659Z,98467.03
2022-11-19T00:53:01.865Z,98457.19
2022-11-19T00:54:04.147Z,98455.66
2022-11-19T00:55:06.995Z,98460.72
2022-11-19T00:56:12.506Z,98464.91
2022-11-19T00:57:14.721Z,98464.75
2022-11-19T00:58:17.594Z,98456.81
2022-11-19T00:59:20.281Z,98464.75
2022-11-19T01:00:22.719Z,98473.47
2022-11-19T01:01:25.726Z,98456.88
2022-11-19T01:02:27.985Z,98468.38
2022-11-19T01:03:30.836Z,98467.44
2022-11-19T01:04:34.047Z,98472.91
2022-11-19T01:05:36.347Z,98474.38
2022-11-19T01:06:38.758Z,98473.22
2022-11-19T01:07:40.907Z,98471.13
2022-11-19T01:08:43.205Z,98474.69
2022-11-19T01:09:47.277Z,98480.97
2022-11-19T01:10:49.443Z,98475.72
2022-11-19T01:11:51.731Z,98477.81
2022-11-19T01:13:12.786Z,98483.34
2022-11-19T01:14:14.941Z,98477.69
2022-11-19T01:15:17.112Z,98470.81
2022-11-19T01:16:28.163Z,98476.19
2022-11-19T01:17:30.311Z,98470.34
2022-11-19T01:18:32.923Z,98472.44
2022-11-19T01:19:35.121Z,98471.41
2022-11-19T01:20:37.406Z,98467.88
2022-11-19T01:21:39.635Z,98465.59
2022-11-19T01:22:42.124Z,98462.22
2022-11-19T01:23:45.609Z,98460.81
2022-11-19T01:24:47.773Z,98463.66
2022-11-19T01:25:49.940Z,98460.34
2022-11-19T01:26:52.128Z,98461.75
2022-11-19T01:27:55.805Z,98455.22
2022-11-19T01:28:58.241Z,98462.31
2022-11-19T01:30:00.436Z,98463.38
2022-11-19T01:31:20.616Z,98458.06
2022-11-19T01:32:22.747Z,98454.22
2022-11-19T01:33:25.044Z,98455.50
2022-11-19T01:34:27.199Z,98456.50
2022-11-19T01:35:29.405Z,98448.28
2022-11-19T01:36:31.570Z,98466.59
2022-11-19T01:37:33.760Z,98459.63
2022-11-19T01:38:36.051Z,98460.97
2022-11-19T01:39:38.262Z,98457.25
2022-11-19T01:40:44.399Z,98457.88
2022-11-19T01:41:46.637Z,98458.34
2022-11-19T01:42:51.469Z,98462.09
2022-11-19T01:43:59.051Z,98460.59
2022-11-19T01:45:04.975Z,98461.00
2022-11-19T01:46:07.460Z,98459.69
2022-11-19T01:47:09.663Z,98457.19
2022-11-19T01:48:21.242Z,98453.84
2022-11-19T01:49:23.505Z,98460.91
2022-11-19T01:50:28.925Z,98455.19
2022-11-19T01:51:32.744Z,98460.69
2022-11-19T01:52:34.979Z,98453.50
2022-11-19T01:53:38.274Z,98462.97
2022-11-19T01:54:46.495Z,98454.44
2022-11-19T01:55:50.425Z,98457.53
2022-11-19T01:56:55.837Z,98467.50
2022-11-19T01:58:01.746Z,98452.22
2022-11-19T01:59:08.759Z,98459.09
2022-11-19T02:01:39.418Z,98466.03
2022-11-19T02:02:41.788Z,98468.09
2022-11-19T02:03:43.934Z,98471.47
2022-11-19T02:04:47.187Z,98466.34
2022-11-19T02:05:50.194Z,98466.91
2022-11-19T02:06:53.662Z,98464.06
2022-11-19T02:07:58.396Z,98472.16
2022-11-19T02:09:00.569Z,98469.66
2022-11-19T02:10:04.918Z,98466.59
2022-11-19T02:11:12.766Z,98479.84
2022-11-19T02:12:24.374Z,98480.72
2022-11-19T02:13:43.832Z,98478.94
2022-11-19T02:15:11.933Z,98477.19
2022-11-19T02:16:51.279Z,98480.13
2022-11-19T02:18:21.057Z,98480.25
2022-11-19T02:19:44.842Z,98474.59
2022-11-19T02:21:02.144Z,98469.50
2022-11-19T02:22:34.976Z,98466.88
2022-11-19T02:23:46.582Z,98472.59
2022-11-19T02:24:55.679Z,98474.25
2022-11-19T02:26:28.879Z,98468.25
2022-11-19T02:27:39.994Z,98473.66
2022-11-19T02:28:50.706Z,98470.44
2022-11-19T02:30:05.289Z,98478.94
2022-11-19T02:31:27.001Z,98471.84
2022-11-19T02:32:42.603Z,98470.91
2022-11-19T02:34:05.365Z,98471.16
2022-11-19T02:35:19.434Z,98472.63
2022-11-19T02:36:32.934Z,98480.75
2022-11-19T02:38:00.606Z,98470.59
2022-11-19T02:39:12.349Z,98473.28
2022-11-19T02:40:22.386Z,98463.78
2022-11-19T02:41:37.702Z,98479.75
2022-11-19T02:42:44.857Z,98476.44
2022-11-19T02:43:49.950Z,98472.75
2022-11-19T02:45:00.619Z,98469.84
2022-11-19T02:46:13.236Z,98469.78
2022-11-19T02:47:20.317Z,98474.59
2022-11-19T02:48:36.636Z,98471.63
2022-11-19T02:49:43.920Z,98472.53
2022-11-19T02:50:52.642Z,98475.59
2022-11-19T02:51:54.909Z,98469.00
2022-11-19T02:52:58.271Z,98473.84
2022-11-19T02:54:00.429Z,98478.50
2022-11-19T02:55:02.740Z,98476.03
2022-11-19T02:56:47.914Z,98476.03
2022-11-19T02:58:02.367Z,98479.06
2022-11-19T02:59:23.023Z,98471.34
2022-11-19T03:00:45.218Z,98479.00
2022-11-19T03:02:07.234Z,98478.69
2022-11-19T03:03:35.229Z,98485.47
2022-11-19T03:04:37.425Z,98476.75
2022-11-19T03:05:44.881Z,98475.75
2022-11-19T03:06:47.210Z,98483.38
2022-11-19T03:07:50.349Z,98479.75
2022-11-19T03:08:52.850Z,98487.00
2022-11-19T03:09:57.818Z,98476.59
2022-11-19T03:11:10.541Z,98488.41
2022-11-19T03:12:21.533Z,98482.41
2022-11-19T03:13:44.948Z,98480.59
2022-11-19T03:15:35.088Z,98486.47
2022-11-19T03:16:44.636Z,98481.22
2022-11-19T03:18:17.298Z,98484.44
2022-11-19T03:19:33.778Z,98495.50
2022-11-19T03:20:41.846Z,98496.25
2022-11-19T03:21:51.346Z,98494.25
2022-11-19T03:23:09.622Z,98494.72
2022-11-19T03:24:21.950Z,98486.63
2022-11-19T03:25:39.027Z,98501.00
2022-11-19T03:26:50.213Z,98507.06
2022-11-19T03:27:57.744Z,98493.44
2022-11-19T03:29:03.938Z,98498.81
2022-11-19T03:30:07.523Z,98489.19
2022-11-19T03:31:11.024Z,98499.09
2022-11-19T03:32:17.295Z,98490.38
2022-11-19T03:33:31.674Z,98496.78
2022-11-19T03:34:35.538Z,98487.66
2022-11-19T03:35:46.271Z,98497.88
2022-11-19T03:36:50.798Z,98493.34
2022-11-19T03:37:55.848Z,98502.78
2022-11-19T03:39:03.309Z,98492.03
2022-11-19T03:40:09.027Z,98497.38
2022-11-19T03:41:15.205Z,98503.84
2022-11-19T03:42:19.909Z,98494.78
2022-11-19T03:43:27.866Z,98491.34
2022-11-19T03:44:36.284Z,98499.25
2022-11-19T03:45:43.665Z,98502.88
2022-11-19T03:46:49.366Z,98492.00
2022-11-19T03:47:52.692Z,98500.75
2022-11-19T03:48:57.927Z,98490.09
2022-11-19T03:50:05.223Z,98495.66
2022-11-19T03:51:13.065Z,98495.84
2022-11-19T03:52:21.438Z,98501.16
2022-11-19T03:53:24.455Z,98504.47
2022-11-19T03:54:26.697Z,98505.69
2022-11-19T03:55:37.612Z,98506.66
2022-11-19T03:56:41.425Z,98504.13
2022-11-19T03:57:44.080Z,98506.38
2022-11-19T03:58:47.383Z,98510.66
2022-11-19T03:59:49.828Z,98510.44
2022-11-19T04:00:52.827Z,98507.41
2022-11-19T04:01:58.749Z,98496.25
2022-11-19T04:03:01.037Z,98509.47
2022-11-19T04:04:22.869Z,98507.13
2022-11-19T04:05:25.334Z,98507.88
2022-11-19T04:06:27.510Z,98510.41
2022-11-19T04:07:29.814Z,98508.09
2022-11-19T04:08:32.917Z,98511.25
2022-11-19T04:09:35.706Z,98511.41
2022-11-19T04:10:37.919Z,98513.31
2022-11-19T04:11:40.434Z,98511.84
2022-11-19T04:12:42.696Z,98514.09
2022-11-19T04:13:45.020Z,98515.25
2022-11-19T04:14:47.382Z,98507.56
2022-11-19T04:15:49.633Z,98509.69
2022-11-19T04:16:51.835Z,98518.34
2022-11-19T04:17:54.078Z,98516.56
2022-11-19T04:18:56.293Z,98510.41
2022-11-19T04:19:58.480Z,98508.88
2022-11-19T04:21:00.680Z,98508.56
2022-11-19T04:22:02.876Z,98509.56
2022-11-19T04:23:05.041Z,98510.63
2022-11-19T04:24:07.599Z,98506.94
2022-11-19T04:25:10.031Z,98510.69
2022-11-19T04:26:12.341Z,98501.78
2022-11-19T04:27:14.631Z,98506.66
2022-11-19T04:28:16.805Z,98506.88
2022-11-19T04:29:19.471Z,98512.69
2022-11-19T04:30:21.896Z,98513.72
2022-11-19T04:31:24.099Z,98514.94
2022-11-19T04:32:27.087Z,98514.50
2022-11-19T04:33:29.362Z,98512.03
2022-11-19T04:34:31.507Z,98513.09
2022-11-19T04:35:34.210Z,98514.38
2022-11-19T04:36:36.664Z,98516.63
2022-11-19T04:37:38.932Z,98522.25
2022-11-19T04:38:41.213Z,98512.81
2022-11-19T04:39:43.526Z,98517.13
2022-11-19T04:40:47.148Z,98520.56
2022-11-19T04:41:49.305Z,98516.00
2022-11-19T04:42:51.552Z,98512.31
2022-11-19T04:43:53.782Z,98512.31
2022-11-19T04:44:55.970Z,98518.19
2022-11-19T04:45:58.137Z,98511.91
2022-11-19T04:47:00.293Z,98511.13
2022-11-19T04:48:02.539Z,98515.31
2022-11-19T04:49:04.741Z,98513.25
2022-11-19T04:50:07.756Z,98510.75
2022-11-19T04:51:10.064Z,98520.66
2022-11-19T04:52:12.326Z,98510.03
2022-11-19T04:53:14.503Z,98513.56
2022-11-19T04:54:16.751Z,98513.19
2022-11-19T04:55:18.898Z,98519.47
2022-11-19T04:56:21.150Z,98507.09
2022-11-19T04:57:23.308Z,98507.13
2022-11-19T04:58:25.444Z,98507.22
2022-11-19T04:59:28.365Z,98506.16
2022-11-19T05:00:30.659Z,98511.03
2022-11-19T05:01:33.105Z,98519.09
2022-11-19T05:02:35.408Z,98510.19
2022-11-19T05:03:37.696Z,98515.25
2022-11-19T05:04:39.848Z,98520.16
2022-11-19T05:05:42.038Z,98507.63
2022-11-19T05:06:44.381Z,98512.19
2022-11-19T05:07:46.913Z,98514.19
2022-11-19T05:08:49.240Z,98507.41
2022-11-19T05:09:51.494Z,98506.88
2022-11-19T05:10:53.751Z,98514.38
2022-11-19T05:11:55.883Z,98507.66
2022-11-19T05:12:58.243Z,98513.88
2022-11-19T05:14:00.657Z,98511.63
2022-11-19T05:15:03.474Z,98509.09
2022-11-19T05:16:06.057Z,98519.34
2022-11-19T05:17:08.355Z,98512.59
2022-11-19T05:18:12.348Z,98515.41
2022-11-19T05:19:14.561Z,98517.06
2022-11-19T05:20:16.824Z,98522.88
2022-11-19T05:21:19.333Z,98517.94
2022-11-19T05:22:22.673Z,98516.88
2022-11-19T05:23:25.489Z,98518.34
2022-11-19T05:24:27.665Z,98528.03
2022-11-19T05:25:29.947Z,98522.25
2022-11-19T05:26:32.133Z,98524.16
2022-11-19T05:27:34.371Z,98530.31
2022-11-19T05:28:39.470Z,98519.09
2022-11-19T05:29:42.313Z,98527.88
2022-11-19T05:30:44.526Z,98526.19
2022-11-19T05:31:46.697Z,98526.19
2022-11-19T05:32:49.129Z,98530.50
2022-11-19T05:33:51.352Z,98527.34
2022-11-19T05:34:53.553Z,98531.09
2022-11-19T05:35:55.729Z,98522.50
2022-11-19T05:36:57.944Z,98524.66
2022-11-19T05:38:00.392Z,98530.59
2022-11-19T05:39:02.582Z,98534.22
2022-11-19T05:40:05.516Z,98526.00
2022-11-19T05:41:07.778Z,98525.38
2022-11-19T05:42:10.123Z,98528.41
2022-11-19T05:43:12.902Z,98523.50
2022-11-19T05:44:15.117Z,98532.25
2022-11-19T05:45:17.413Z,98517.28
2022-11-19T05:46:20.155Z,98525.75
2022-11-19T05:47:22.364Z,98537.00
2022-11-19T05:48:24.608Z,98528.97
2022-11-19T05:49:26.846Z,98529.97
2022-11-19T05:50:29.427Z,98522.19
2022-11-19T05:51:32.781Z,98525.47
2022-11-19T05:52:35.015Z,98526.53
2022-11-19T05:53:37.204Z,98524.47
2022-11-19T05:54:39.397Z,98532.59
2022-11-19T05:55:41.589Z,98537.44
2022-11-19T05:56:43.841Z,98536.31
2022-11-19T05:57:46.116Z,98537.25
2022-11-19T05:58:48.402Z,98530.78
2022-11-19T05:59:50.542Z,98541.00
2022-11-19T06:00:56.113Z,98541.00
2022-11-19T06:01:58.736Z,98537.09
2022-11-19T06:03:01.011Z,98533.19
2022-11-19T06:04:03.258Z,98538.28
2022-11-19T06:05:05.836Z,98544.81
2022-11-19T06:06:08.405Z,98541.84
2022-11-19T06:07:13.867Z,98539.88
2022-11-19T06:08:16.052Z,98541.97
2022-11-19T06:09:19.266Z,98546.28
2022-11-19T06:10:21.730Z,98550.09
2022-11-19T06:11:42.455Z,98548.56
2022-11-19T06:12:45.930Z,98550.97
2022-11-19T06:13:48.531Z,98552.72
2022-11-19T06:14:50.755Z,98545.59
2022-11-19T06:15:52.921Z,98539.22
2022-11-19T06:16:57.150Z,98550.09
2022-11-19T06:17:59.346Z,98542.91
2022-11-19T06:19:01.671Z,98544.72
2022-11-19T06:20:04.430Z,98548.34
2022-11-19T06:21:11.891Z,98557.25
2022-11-19T06:22:14.411Z,98555.63
2022-11-19T06:23:16.603Z,98548.84
2022-11-19T06:24:19.330Z,98550.69
2022-11-19T06:25:21.751Z,98548.63
2022-11-19T06:26:28.108Z,98552.72
2022-11-19T06:27:30.301Z,98560.38
2022-11-19T06:28:32.534Z,98557.63
2022-11-19T06:29:34.882Z,98557.31
2022-11-19T06:30:37.450Z,98556.84
2022-11-19T06:31:39.709Z,98560.84
2022-11-19T06:32:42.720Z,98559.38
2022-11-19T06:33:44.983Z,98559.75
2022-11-19T06:34:47.258Z,98559.72
2022-11-19T06:35:50.101Z,98563.50
2022-11-19T06:36:52.290Z,98562.91
2022-11-19T06:37:54.462Z,98551.75
2022-11-19T06:38:56.738Z,98557.25
2022-11-19T06:39:59.093Z,98560.81
2022-11-19T06:41:01.435Z,98565.53
2022-11-19T06:42:22.614Z,98556.28
2022-11-19T06:43:24.795Z,98565.69
2022-11-19T06:44:27.097Z,98557.91
2022-11-19T06:45:29.286Z,98554.16
2022-11-19T06:46:31.603Z,98562.69
2022-11-19T06:47:34.138Z,98570.34
2022-11-19T06:48:36.539Z,98565.38
2022-11-19T06:49:38.848Z,98562.44
2022-11-19T06:50:41.073Z,98569.56
2022-11-19T06:51:43.290Z,98562.91
2022-11-19T06:52:45.564Z,98567.84
2022-11-19T06:53:47.739Z,98577.00
2022-11-19T06:54:49.931Z,98571.41
2022-11-19T06:55:56.806Z,98573.47
2022-11-19T06:56:59.054Z,98573.94
2022-11-19T06:58:05.526Z,98570.72
2022-11-19T06:59:07.748Z,98570.72
2022-11-19T07:00:11.245Z,98574.88
2022-11-19T07:01:15.112Z,98564.75
2022-11-19T07:02:21.286Z,98577.00
2022-11-19T07:03:24.655Z,98571.53
2022-11-19T07:04:27.126Z,98577.56
2022-11-19T07:05:29.599Z,98576.88
2022-11-19T07:06:31.829Z,98577.28
2022-11-19T07:07:34.783Z,98577.09
2022-11-19T07:08:39.194Z,98587.34
2022-11-19T07:09:41.498Z,98578.94
2022-11-19T07:10:43.829Z,98584.84
2022-11-19T07:11:46.151Z,98575.69
2022-11-19T07:12:48.338Z,98584.94
2022-11-19T07:13:57.203Z,98578.22
2022-11-19T07:15:04.029Z,98583.44
2022-11-19T07:16:06.937Z,98589.78
2022-11-19T07:17:09.190Z,98586.06
2022-11-19T07:18:11.538Z,98591.22
2022-11-19T07:19:13.793Z,98594.03
2022-11-19T07:20:16.697Z,98600.28
2022-11-19T07:21:18.886Z,98591.25
2022-11-19T07:22:21.141Z,98596.19
2022-11-19T07:23:23.421Z,98595.97
2022-11-19T07:24:25.629Z,98597.66
2022-11-19T07:25:28.778Z,98596.91
2022-11-19T07:26:33.151Z,98602.06
2022-11-19T07:27:35.421Z,98597.41
2022-11-19T07:28:37.594Z,98605.94
2022-11-19T07:29:39.765Z,98587.78
2022-11-19T07:30:41.965Z,98597.25
2022-11-19T07:31:45.834Z,98606.44
2022-11-19T07:32:47.996Z,98605.03
2022-11-19T07:33:50.304Z,98615.41
2022-11-19T07:34:52.440Z,98611.81
2022-11-19T07:35:54.894Z,98606.16
2022-11-19T07:36:57.575Z,98614.06
2022-11-19T07:37:59.772Z,98614.00
2022-11-19T07:39:02.052Z,98607.91
2022-11-19T07:40:05.572Z,98607.09
2022-11-19T07:41:27.709Z,98603.31
2022-11-19T07:42:48.240Z,98606.34
2022-11-19T07:43:51.030Z,98599.31
2022-11-19T07:44:54.961Z,98598.63
2022-11-19T07:45:57.395Z,98603.06
2022-11-19T07:46:59.711Z,98606.13
2022-11-19T07:48:01.940Z,98612.63
2022-11-19T07:49:04.183Z,98603.66
2022-11-19T07:50:07.047Z,98608.03
2022-11-19T07:51:09.191Z,98596.69
2022-11-19T07:52:11.328Z,98611.53
2022-11-19T07:53:13.526Z,98602.59
2022-11-19T07:54:15.784Z,98601.78
2022-11-19T07:55:18.012Z,98601.72
2022-11-19T07:56:20.413Z,98605.88
2022-11-19T07:57:29.724Z,98610.56
2022-11-19T07:58:32.506Z,98613.88
2022-11-19T07:59:34.753Z,98607.22
2022-11-19T08:00:37.198Z,98607.50
2022-11-19T08:01:39.507Z,98615.94
2022-11-19T08:02:42.033Z,98612.13
2022-11-19T08:03:47.199Z,98609.59
2022-11-19T08:04:50.826Z,98608.78
2022-11-19T08:05:53.015Z,98612.25
2022-11-19T08:06:55.386Z,98613.66
2022-11-19T08:07:57.668Z,98607.91
2022-11-19T08:09:01.074Z,98616.84
2022-11-19T08:10:06.341Z,98604.41
2022-11-19T08:11:10.698Z,98616.28
2022-11-19T08:12:12.874Z,98617.38
2022-11-19T08:13:15.105Z,98611.66
2022-11-19T08:14:17.377Z,98615.63
2022-11-19T08:15:19.498Z,98610.22
2022-11-19T08:16:41.033Z,98612.03
2022-11-19T08:18:02.150Z,98618.91
2022-11-19T08:19:09.959Z,98627.19
2022-11-19T08:20:12.273Z,98630.94
2022-11-19T08:21:14.525Z,98625.56
2022-11-19T08:22:16.789Z,98624.88
2022-11-19T08:23:19.138Z,98617.03
2022-11-19T08:24:21.789Z,98629.88
2022-11-19T08:25:24.203Z,98631.63
2022-11-19T08:26:26.486Z,98634.03
2022-11-19T08:27:28.862Z,98634.97
2022-11-19T08:28:31.146Z,98633.44
2022-11-19T08:29:33.331Z,98632.75
2022-11-19T08:30:35.547Z,98635.97
2022-11-19T08:31:37.788Z,98636.44
2022-11-19T08:32:39.993Z,98638.44
2022-11-19T08:33:42.325Z,98635.25
2022-11-19T08:34:44.500Z,98631.63
2022-11-19T08:35:46.760Z,98645.69
2022-11-19T08:36:49.110Z,98641.44
2022-11-19T08:37:51.397Z,98633.50
2022-11-19T08:38:57.242Z,98643.88
2022-11-19T08:39:59.475Z,98643.91
2022-11-19T08:41:36.654Z,98644.13
2022-11-19T08:42:57.296Z,98638.31
2022-11-19T08:44:01.226Z,98639.56
2022-11-19T08:45:04.047Z,98638.69
2022-11-19T08:46:07.071Z,98641.56
2022-11-19T08:47:09.300Z,98641.91
2022-11-19T08:48:13.374Z,98646.63
2022-11-19T08:49:15.593Z,98638.13
2022-11-19T08:50:17.865Z,98633.81
2022-11-19T08:51:20.106Z,98644.13
2022-11-19T08:52:22.313Z,98640.06
2022-11-19T08:53:24.635Z,98643.16
2022-11-19T08:54:26.952Z,98642.78
2022-11-19T08:55:30.327Z,98637.88
2022-11-19T08:56:33.261Z,98642.28
2022-11-19T08:57:35.393Z,98639.81
2022-11-19T08:58:37.642Z,98649.34
2022-11-19T08:59:39.845Z,98654.88
2022-11-19T09:00:42.437Z,98649.78
2022-11-19T09:01:44.669Z,98638.75
2022-11-19T09:02:47.232Z,98643.47
2022-11-19T09:03:49.649Z,98648.38
2022-11-19T09:04:51.823Z,98647.63
2022-11-19T09:06:00.768Z,98655.81
2022-11-19T09:07:03.111Z,98645.16
2022-11-19T09:08:05.367Z,98650.16
2022-11-19T09:09:08.803Z,98647.31
2022-11-19T09:10:11.003Z,98648.34
2022-11-19T09:11:16.703Z,98648.38
2022-11-19T09:12:19.124Z,98646.31
2022-11-19T09:13:21.628Z,98652.00
2022-11-19T09:14:23.779Z,98651.31
2022-11-19T09:15:25.976Z,98651.00
2022-11-19T09:16:28.243Z,98664.44
2022-11-19T09:17:30.456Z,98655.03
2022-11-19T09:18:33.481Z,98657.66
2022-11-19T09:19:35.730Z,98653.16
2022-11-19T09:20:37.975Z,98655.41
2022-11-19T09:21:40.422Z,98657.22
2022-11-19T09:22:42.638Z,98664.69
2022-11-19T09:23:45.036Z,98656.00
2022-11-19T09:24:47.234Z,98660.59
2022-11-19T09:26:00.625Z,98668.16
2022-11-19T09:27:03.126Z,98659.78
2022-11-19T09:28:05.411Z,98664.13
2022-11-19T09:29:07.664Z,98672.09
2022-11-19T09:30:10.054Z,98665.19
2022-11-19T09:31:15.541Z,98663.94
2022-11-19T09:32:22.449Z,98670.06
2022-11-19T09:33:30.040Z,98671.28
2022-11-19T09:34:32.404Z,98676.06
2022-11-19T09:35:34.664Z,98674.06
2022-11-19T09:36:36.856Z,98670.53
2022-11-19T09:37:39.128Z,98677.19
2022-11-19T09:38:42.150Z,98674.22
2022-11-19T09:39:44.348Z,98683.97
2022-11-19T09:40:49.690Z,98682.19
2022-11-19T09:42:02.182Z,98687.56
2022-11-19T09:43:15.446Z,98689.56
2022-11-19T09:44:35.977Z,98695.28
2022-11-19T09:45:47.486Z,98696.78
2022-11-19T09:47:16.907Z,98697.38
2022-11-19T09:48:19.050Z,98700.47
2022-11-19T09:49:40.930Z,98702.81
2022-11-19T09:50:53.549Z,98698.97
2022-11-19T09:52:03.556Z,98696.63
2022-11-19T09:53:17.303Z,98703.44
2022-11-19T09:54:21.865Z,98698.81
2022-11-19T09:55:37.919Z,98710.25
2022-11-19T09:56:45.882Z,98701.03
2022-11-19T09:57:54.727Z,98693.81
2022-11-19T09:58:58.211Z,98699.88
2022-11-19T10:00:02.312Z,98711.50
2022-11-19T10:01:18.586Z,98702.41
2022-11-19T10:02:22.678Z,98707.81
2022-11-19T10:03:31.592Z,98710.88
2022-11-19T10:04:36.656Z,98700.22
2022-11-19T10:05:51.088Z,98706.25
2022-11-19T10:07:08.384Z,98708.38
2022-11-19T10:08:48.215Z,98704.81
2022-11-19T10:10:07.755Z,98703.84
2022-11-19T10:11:57.422Z,98701.16
2022-11-19T10:13:20.132Z,98698.75
2022-11-19T10:14:36.127Z,98706.53
2022-11-19T10:15:59.862Z,98701.72
2022-11-19T10:17:16.910Z,98704.59
2022-11-19T10:18:19.063Z,98704.28
2022-11-19T10:19:34.086Z,98702.47
2022-11-19T10:20:48.971Z,98692.84
2022-11-19T10:22:31.791Z,98689.47
2022-11-19T10:23:49.033Z,98699.31
2022-11-19T10:25:27.482Z,98696.91
2022-11-19T10:26:35.058Z,98691.94
2022-11-19T10:27:50.074Z,98698.28
2022-11-19T10:28:57.207Z,98690.88
2022-11-19T10:30:06.373Z,98685.56
2022-11-19T10:31:31.538Z,98690.47
2022-11-19T10:32:42.699Z,98684.44
2022-11-19T10:34:11.134Z,98687.50
2022-11-19T10:35:21.387Z,98687.47
2022-11-19T10:36:32.865Z,98689.47
2022-11-19T10:37:40.733Z,98685.69
2022-11-19T10:39:16.392Z,98681.75
2022-11-19T10:40:22.680Z,98682.41
2022-11-19T10:41:38.530Z,98686.00
2022-11-19T10:42:46.948Z,98684.59
2022-11-19T10:43:56.940Z,98682.19
2022-11-19T10:45:09.946Z,98682.44
2022-11-19T10:46:17.016Z,98677.31
2022-11-19T10:47:26.289Z,98673.63
2022-11-19T10:48:42.228Z,98678.66
2022-11-19T10:49:45.325Z,98668.31
2022-11-19T10:50:48.019Z,98676.88
2022-11-19T10:51:50.299Z,98673.50
2022-11-19T10:53:32.122Z,98668.59
2022-11-19T10:54:34.424Z,98678.75
2022-11-19T10:55:42.229Z,98673.44
2022-11-19T10:56:44.479Z,98679.66
2022-11-19T10:57:49.388Z,98676.72
2022-11-19T10:58:56.042Z,98682.94
2022-11-19T10:59:59.120Z,98678.28
2022-11-19T11:01:03.719Z,98680.66
2022-11-19T11:02:40.488Z,98666.84
2022-11-19T11:03:52.019Z,98680.19
2022-11-19T11:05:04.138Z,98670.84
2022-11-19T11:06:09.836Z,98684.03
2022-11-19T11:07:12.083Z,98682.94
2022-11-19T11:08:14.312Z,98670.69
2022-11-19T11:09:32.530Z,98680.31
2022-11-19T11:10:44.134Z,98671.22
2022-11-19T11:12:05.163Z,98685.31
2022-11-19T11:13:34.474Z,98677.72
2022-11-19T11:14:52.094Z,98682.38
2022-11-19T11:15:55.046Z,98666.19
2022-11-19T11:16:58.140Z,98687.44
2022-11-19T11:18:09.208Z,98672.78
2022-11-19T11:19:21.700Z,98680.25
2022-11-19T11:20:27.151Z,98684.84
2022-11-19T11:21:34.350Z,98676.59
2022-11-19T11:22:36.889Z,98671.56
2022-11-19T11:23:51.756Z,98672.97
2022-11-19T11:24:54.368Z,98666.31
2022-11-19T11:26:05.429Z,98678.56
2022-11-19T11:27:31.002Z,98667.47
2022-11-19T11:28:34.128Z,98669.97
2022-11-19T11:29:36.374Z,98663.44
2022-11-19T11:31:01.679Z,98661.75
2022-11-19T11:32:32.882Z,98669.34
2022-11-19T11:33:41.839Z,98666.72
2022-11-19T11:34:44.225Z,98668.78
2022-11-19T11:35:46.507Z,98663.69
2022-11-19T11:36:48.711Z,98673.19
2022-11-19T11:37:51.223Z,98668.28
2022-11-19T11:38:55.737Z,98664.84
2022-11-19T11:39:59.176Z,98668.53
2022-11-19T11:42:29.649Z,98670.84
2022-11-19T11:43:33.951Z,98666.66
2022-11-19T11:44:47.381Z,98668.66
2022-11-19T11:45:59.543Z,98664.03
2022-11-19T11:47:10.424Z,98668.72
2022-11-19T11:48:22.316Z,98667.53
2022-11-19T11:49:29.670Z,98667.31
2022-11-19T11:50:31.903Z,98670.84
2022-11-19T11:51:36.835Z,98660.03
2022-11-19T11:52:51.335Z,98660.59
2022-11-19T11:54:18.357Z,98662.88
2022-11-19T11:55:23.601Z,98665.41
2022-11-19T11:56:25.826Z,98667.94
2022-11-19T11:57:53.004Z,98662.84
2022-11-19T11:59:14.299Z,98655.06
2022-11-19T12:00:36.564Z,98665.84
2022-11-19T12:01:41.386Z,98670.03
2022-11-19T12:03:00.175Z,98660.44
2022-11-19T12:04:02.541Z,98666.25
2022-11-19T12:05:16.706Z,98664.41
2022-11-19T12:06:20.064Z,98667.47
2022-11-19T12:07:40.742Z,98656.41
2022-11-19T12:08:57.889Z,98657.19
2022-11-19T12:10:25.031Z,98657.72
2022-11-19T12:12:06.780Z,98656.13
2022-11-19T12:13:24.041Z,98655.78
2022-11-19T12:15:04.152Z,98663.28
2022-11-19T12:16:21.606Z,98659.19
2022-11-19T12:17:39.462Z,98656.41
2022-11-19T12:19:04.741Z,98661.28
2022-11-19T12:20:44.141Z,98659.84
2022-11-19T12:21:55.413Z,98656.78
2022-11-19T12:23:33.502Z,98665.47
2022-11-19T12:24:35.609Z,98665.47
2022-11-19T12:25:50.069Z,98665.69
2022-11-19T12:27:22.861Z,98667.47
2022-11-19T12:29:01.951Z,98665.28
2022-11-19T12:30:20.538Z,98669.03
2022-11-19T12:31:53.342Z,98666.19
2022-11-19T12:33:10.593Z,98658.25
2022-11-19T12:34:27.207Z,98657.41
2022-11-19T12:35:57.086Z,98667.41
2022-11-19T12:37:15.268Z,98665.41
2022-11-19T12:38:31.557Z,98660.81
2022-11-19T12:40:14.331Z,98662.41
2022-11-19T12:41:35.228Z,98663.53
2022-11-19T12:42:52.315Z,98670.59
2022-11-19T12:44:00.451Z,98675.50
2022-11-19T12:45:24.447Z,98675.81
2022-11-19T12:47:12.902Z,98670.16
2022-11-19T12:48:22.614Z,98670.19
2022-11-19T12:49:33.948Z,98669.66
2022-11-19T12:51:05.222Z,98658.22
2022-11-19T12:52:38.908Z,98668.72
2022-11-19T12:54:19.498Z,98676.16
2022-11-19T12:55:58.811Z,98670.09
2022-11-19T12:57:18.957Z,98671.97
2022-11-19T12:58:29.548Z,98674.44
2022-11-19T12:59:46.630Z,98676.22
2022-11-19T13:00:57.986Z,98665.41
2022-11-19T13:02:03.706Z,98680.56
2022-11-19T13:03:14.856Z,98673.66
2022-11-19T13:04:26.665Z,98671.97
2022-11-19T13:05:34.615Z,98674.59
2022-11-19T13:06:45.736Z,98671.38
2022-11-19T13:08:14.018Z,98677.69
2022-11-19T13:09:21.644Z,98678.63
2022-11-19T13:10:29.622Z,98677.19
2022-11-19T13:11:40.658Z,98681.84
2022-11-19T13:12:47.603Z,98678.19
2022-11-19T13:14:00.758Z,98687.06
2022-11-19T13:15:27.710Z,98686.59